sensor_id;sensor_type;location;lat;lon;timestamp;P1;durP1;ratioP1;P2;durP2;ratioP2
60859;SDS011;46694;54.382;9.708;2023-03-01T00:01:50;18.05;;;13.07;;
60859;SDS011;46694;54.382;9.708;2023-03-01T00:04:29;19.33;;;15.38;;
60859;SDS011;46694;54.382;9.708;2023-03-01T00:07:09;21.00;;;14.20;;
60859;SDS011;46694;54.382;9.708;2023-03-01T00:09:49;18.25;;;14.07;;
60859;SDS011;46694;54.382;9.708;2023-03-01T00:12:28;20.23;;;14.68;;
60859;SDS011;46694;54.382;9.708;2023-03-01T00:15:08;21.38;;;16.40;;
60859;SDS011;46694;54.382;9.708;2023-03-01T00:21:30;19.48;;;15.02;;
60859;SDS011;46694;54.382;9.708;2023-03-01T00:24:10;30.52;;;14.00;;
60859;SDS011;46694;54.382;9.708;2023-03-01T00:26:52;48.80;;;14.32;;
60859;SDS011;46694;54.382;9.708;2023-03-01T00:29:34;34.85;;;13.82;;
60859;SDS011;46694;54.382;9.708;2023-03-01T00:32:13;26.90;;;14.15;;
60859;SDS011;46694;54.382;9.708;2023-03-01T00:34:53;26.17;;;12.70;;
60859;SDS011;46694;54.382;9.708;2023-03-01T00:37:35;18.80;;;14.05;;
60859;SDS011;46694;54.382;9.708;2023-03-01T00:40:14;15.70;;;12.88;;
60859;SDS011;46694;54.382;9.708;2023-03-01T00:42:55;21.77;;;13.43;;
60859;SDS011;46694;54.382;9.708;2023-03-01T00:45:34;18.17;;;14.10;;
60859;SDS011;46694;54.382;9.708;2023-03-01T00:48:14;18.10;;;14.32;;
60859;SDS011;46694;54.382;9.708;2023-03-01T00:50:53;16.52;;;13.68;;
60859;SDS011;46694;54.382;9.708;2023-03-01T00:53:33;15.48;;;12.30;;
60859;SDS011;46694;54.382;9.708;2023-03-01T00:56:14;19.67;;;13.20;;
60859;SDS011;46694;54.382;9.708;2023-03-01T00:58:53;22.27;;;12.57;;
60859;SDS011;46694;54.382;9.708;2023-03-01T01:01:33;21.20;;;13.52;;
60859;SDS011;46694;54.382;9.708;2023-03-01T01:04:13;17.73;;;12.65;;
60859;SDS011;46694;54.382;9.708;2023-03-01T01:06:52;14.70;;;12.15;;
60859;SDS011;46694;54.382;9.708;2023-03-01T01:09:32;14.85;;;12.48;;
60859;SDS011;46694;54.382;9.708;2023-03-01T01:12:11;15.98;;;12.18;;
60859;SDS011;46694;54.382;9.708;2023-03-01T01:14:51;19.25;;;12.25;;
60859;SDS011;46694;54.382;9.708;2023-03-01T01:17:30;20.25;;;11.90;;
60859;SDS011;46694;54.382;9.708;2023-03-01T01:20:10;18.70;;;12.70;;
60859;SDS011;46694;54.382;9.708;2023-03-01T01:22:50;15.60;;;13.00;;
60859;SDS011;46694;54.382;9.708;2023-03-01T01:25:30;19.95;;;12.55;;
60859;SDS011;46694;54.382;9.708;2023-03-01T01:28:13;16.83;;;13.40;;
60859;SDS011;46694;54.382;9.708;2023-03-01T01:30:53;15.77;;;12.65;;
60859;SDS011;46694;54.382;9.708;2023-03-01T01:33:32;15.77;;;12.70;;
60859;SDS011;46694;54.382;9.708;2023-03-01T01:36:13;13.38;;;11.93;;
60859;SDS011;46694;54.382;9.708;2023-03-01T01:38:52;15.52;;;12.13;;
60859;SDS011;46694;54.382;9.708;2023-03-01T01:41:32;29.63;;;12.63;;
60859;SDS011;46694;54.382;9.708;2023-03-01T01:47:11;17.58;;;12.13;;
60859;SDS011;46694;54.382;9.708;2023-03-01T01:49:55;15.25;;;13.25;;
60859;SDS011;46694;54.382;9.708;2023-03-01T01:52:35;15.10;;;12.50;;
60859;SDS011;46694;54.382;9.708;2023-03-01T01:55:18;14.48;;;11.38;;
60859;SDS011;46694;54.382;9.708;2023-03-01T01:58:02;15.50;;;13.68;;
60859;SDS011;46694;54.382;9.708;2023-03-01T02:00:45;22.65;;;13.82;;
60859;SDS011;46694;54.382;9.708;2023-03-01T02:03:31;16.27;;;12.35;;
60859;SDS011;46694;54.382;9.708;2023-03-01T02:06:51;22.35;;;13.00;;
60859;SDS011;46694;54.382;9.708;2023-03-01T02:09:29;28.55;;;12.00;;
60859;SDS011;46694;54.382;9.708;2023-03-01T02:12:11;20.67;;;12.82;;
60859;SDS011;46694;54.382;9.708;2023-03-01T02:14:53;18.15;;;13.00;;
60859;SDS011;46694;54.382;9.708;2023-03-01T02:17:33;16.33;;;13.38;;
60859;SDS011;46694;54.382;9.708;2023-03-01T02:20:19;16.50;;;12.77;;
60859;SDS011;46694;54.382;9.708;2023-03-01T02:23:07;15.32;;;12.25;;
60859;SDS011;46694;54.382;9.708;2023-03-01T02:25:52;24.75;;;13.07;;
60859;SDS011;46694;54.382;9.708;2023-03-01T02:28:40;16.15;;;12.10;;
60859;SDS011;46694;54.382;9.708;2023-03-01T02:31:21;15.40;;;12.15;;
60859;SDS011;46694;54.382;9.708;2023-03-01T02:34:21;15.45;;;12.35;;
60859;SDS011;46694;54.382;9.708;2023-03-01T02:37:08;13.80;;;12.20;;
60859;SDS011;46694;54.382;9.708;2023-03-01T02:39:55;16.33;;;12.10;;
60859;SDS011;46694;54.382;9.708;2023-03-01T02:42:45;13.95;;;11.90;;
60859;SDS011;46694;54.382;9.708;2023-03-01T02:45:30;14.73;;;11.95;;
60859;SDS011;46694;54.382;9.708;2023-03-01T02:48:10;14.38;;;11.90;;
60859;SDS011;46694;54.382;9.708;2023-03-01T02:51:12;12.48;;;11.18;;
60859;SDS011;46694;54.382;9.708;2023-03-01T02:57:04;13.15;;;11.63;;
60859;SDS011;46694;54.382;9.708;2023-03-01T02:59:44;13.32;;;11.10;;
60859;SDS011;46694;54.382;9.708;2023-03-01T03:02:25;15.00;;;10.75;;
60859;SDS011;46694;54.382;9.708;2023-03-01T03:05:21;16.30;;;11.32;;
60859;SDS011;46694;54.382;9.708;2023-03-01T03:08:04;16.23;;;11.70;;
60859;SDS011;46694;54.382;9.708;2023-03-01T03:10:44;13.82;;;11.32;;
60859;SDS011;46694;54.382;9.708;2023-03-01T03:13:23;12.52;;;10.25;;
60859;SDS011;46694;54.382;9.708;2023-03-01T03:16:07;15.48;;;10.60;;
60859;SDS011;46694;54.382;9.708;2023-03-01T03:18:46;13.73;;;10.88;;
60859;SDS011;46694;54.382;9.708;2023-03-01T03:21:26;15.15;;;11.63;;
60859;SDS011;46694;54.382;9.708;2023-03-01T03:24:06;20.70;;;11.60;;
60859;SDS011;46694;54.382;9.708;2023-03-01T03:26:45;12.88;;;10.23;;
60859;SDS011;46694;54.382;9.708;2023-03-01T03:29:25;17.88;;;10.13;;
60859;SDS011;46694;54.382;9.708;2023-03-01T03:32:04;14.40;;;11.02;;
60859;SDS011;46694;54.382;9.708;2023-03-01T03:34:44;23.50;;;11.23;;
60859;SDS011;46694;54.382;9.708;2023-03-01T03:37:23;13.75;;;10.20;;
60859;SDS011;46694;54.382;9.708;2023-03-01T03:40:22;23.48;;;11.38;;
60859;SDS011;46694;54.382;9.708;2023-03-01T03:43:02;13.23;;;11.60;;
60859;SDS011;46694;54.382;9.708;2023-03-01T03:46:02;12.52;;;10.15;;
60859;SDS011;46694;54.382;9.708;2023-03-01T03:48:45;12.27;;;10.25;;
60859;SDS011;46694;54.382;9.708;2023-03-01T03:51:24;16.10;;;10.07;;
60859;SDS011;46694;54.382;9.708;2023-03-01T03:54:19;13.35;;;10.68;;
60859;SDS011;46694;54.382;9.708;2023-03-01T03:56:59;22.88;;;11.13;;
60859;SDS011;46694;54.382;9.708;2023-03-01T03:59:38;14.18;;;10.45;;
60859;SDS011;46694;54.382;9.708;2023-03-01T04:02:18;16.45;;;11.55;;
60859;SDS011;46694;54.382;9.708;2023-03-01T04:05:00;14.85;;;10.85;;
60859;SDS011;46694;54.382;9.708;2023-03-01T04:07:40;13.63;;;10.60;;
60859;SDS011;46694;54.382;9.708;2023-03-01T04:10:20;13.70;;;10.48;;
60859;SDS011;46694;54.382;9.708;2023-03-01T04:13:00;14.18;;;10.70;;
60859;SDS011;46694;54.382;9.708;2023-03-01T04:15:40;24.35;;;10.20;;
60859;SDS011;46694;54.382;9.708;2023-03-01T04:18:23;12.40;;;9.98;;
60859;SDS011;46694;54.382;9.708;2023-03-01T04:21:04;105.65;;;12.18;;
60859;SDS011;46694;54.382;9.708;2023-03-01T04:23:43;34.80;;;11.10;;
60859;SDS011;46694;54.382;9.708;2023-03-01T04:26:23;12.90;;;10.52;;
60859;SDS011;46694;54.382;9.708;2023-03-01T04:29:02;38.85;;;11.77;;
60859;SDS011;46694;54.382;9.708;2023-03-01T04:31:43;15.55;;;11.77;;
60859;SDS011;46694;54.382;9.708;2023-03-01T04:34:22;14.93;;;10.77;;
60859;SDS011;46694;54.382;9.708;2023-03-01T04:37:02;16.83;;;12.77;;
60859;SDS011;46694;54.382;9.708;2023-03-01T04:39:41;14.50;;;11.10;;
60859;SDS011;46694;54.382;9.708;2023-03-01T04:42:26;21.65;;;11.57;;
60859;SDS011;46694;54.382;9.708;2023-03-01T04:45:06;37.58;;;12.30;;
60859;SDS011;46694;54.382;9.708;2023-03-01T04:47:51;11.90;;;9.90;;
60859;SDS011;46694;54.382;9.708;2023-03-01T04:50:31;17.90;;;10.55;;
60859;SDS011;46694;54.382;9.708;2023-03-01T04:53:11;13.40;;;10.75;;
60859;SDS011;46694;54.382;9.708;2023-03-01T04:55:50;19.85;;;10.70;;
60859;SDS011;46694;54.382;9.708;2023-03-01T04:58:30;15.93;;;11.50;;
60859;SDS011;46694;54.382;9.708;2023-03-01T05:01:17;12.25;;;10.18;;
60859;SDS011;46694;54.382;9.708;2023-03-01T05:03:58;19.65;;;10.93;;
60859;SDS011;46694;54.382;9.708;2023-03-01T05:06:42;18.20;;;12.35;;
60859;SDS011;46694;54.382;9.708;2023-03-01T05:09:21;15.05;;;10.77;;
60859;SDS011;46694;54.382;9.708;2023-03-01T05:12:01;14.32;;;11.43;;
60859;SDS011;46694;54.382;9.708;2023-03-01T05:14:41;16.90;;;12.32;;
60859;SDS011;46694;54.382;9.708;2023-03-01T05:17:20;19.80;;;12.60;;
60859;SDS011;46694;54.382;9.708;2023-03-01T05:20:00;14.57;;;11.77;;
60859;SDS011;46694;54.382;9.708;2023-03-01T05:22:40;14.48;;;10.73;;
60859;SDS011;46694;54.382;9.708;2023-03-01T05:25:20;15.27;;;10.05;;
60859;SDS011;46694;54.382;9.708;2023-03-01T05:28:00;16.20;;;10.65;;
60859;SDS011;46694;54.382;9.708;2023-03-01T05:30:45;12.90;;;10.20;;
60859;SDS011;46694;54.382;9.708;2023-03-01T05:33:25;15.80;;;11.20;;
60859;SDS011;46694;54.382;9.708;2023-03-01T05:36:06;17.48;;;10.23;;
60859;SDS011;46694;54.382;9.708;2023-03-01T05:38:48;20.08;;;11.98;;
60859;SDS011;46694;54.382;9.708;2023-03-01T05:41:27;15.85;;;10.52;;
60859;SDS011;46694;54.382;9.708;2023-03-01T05:44:07;15.82;;;9.45;;
60859;SDS011;46694;54.382;9.708;2023-03-01T05:46:47;13.35;;;9.85;;
60859;SDS011;46694;54.382;9.708;2023-03-01T05:49:27;15.10;;;10.27;;
60859;SDS011;46694;54.382;9.708;2023-03-01T05:52:06;12.27;;;10.75;;
60859;SDS011;46694;54.382;9.708;2023-03-01T05:54:46;12.93;;;9.45;;
60859;SDS011;46694;54.382;9.708;2023-03-01T05:57:27;14.27;;;8.55;;
60859;SDS011;46694;54.382;9.708;2023-03-01T06:00:08;11.52;;;8.30;;
60859;SDS011;46694;54.382;9.708;2023-03-01T06:02:49;12.05;;;10.30;;
60859;SDS011;46694;54.382;9.708;2023-03-01T06:05:30;28.15;;;11.93;;
60859;SDS011;46694;54.382;9.708;2023-03-01T06:08:10;13.10;;;9.32;;
60859;SDS011;46694;54.382;9.708;2023-03-01T06:10:50;8.15;;;7.13;;
60859;SDS011;46694;54.382;9.708;2023-03-01T06:13:30;9.23;;;7.75;;
60859;SDS011;46694;54.382;9.708;2023-03-01T06:16:09;9.25;;;7.10;;
60859;SDS011;46694;54.382;9.708;2023-03-01T06:18:49;10.65;;;8.57;;
60859;SDS011;46694;54.382;9.708;2023-03-01T06:21:29;11.15;;;8.57;;
60859;SDS011;46694;54.382;9.708;2023-03-01T06:24:08;18.08;;;10.07;;
60859;SDS011;46694;54.382;9.708;2023-03-01T06:26:47;50.97;;;11.90;;
60859;SDS011;46694;54.382;9.708;2023-03-01T06:29:27;15.38;;;10.85;;
60859;SDS011;46694;54.382;9.708;2023-03-01T06:32:07;15.88;;;11.45;;
60859;SDS011;46694;54.382;9.708;2023-03-01T06:34:46;16.50;;;11.40;;
60859;SDS011;46694;54.382;9.708;2023-03-01T06:37:26;15.50;;;8.85;;
60859;SDS011;46694;54.382;9.708;2023-03-01T06:40:06;10.82;;;9.15;;
60859;SDS011;46694;54.382;9.708;2023-03-01T06:42:48;10.05;;;8.60;;
60859;SDS011;46694;54.382;9.708;2023-03-01T06:45:28;13.07;;;9.95;;
60859;SDS011;46694;54.382;9.708;2023-03-01T06:48:08;10.93;;;9.20;;
60859;SDS011;46694;54.382;9.708;2023-03-01T06:50:47;10.48;;;7.97;;
60859;SDS011;46694;54.382;9.708;2023-03-01T06:53:28;20.08;;;8.60;;
60859;SDS011;46694;54.382;9.708;2023-03-01T06:56:07;11.88;;;8.05;;
60859;SDS011;46694;54.382;9.708;2023-03-01T06:58:47;10.07;;;7.57;;
60859;SDS011;46694;54.382;9.708;2023-03-01T07:01:26;22.67;;;8.07;;
60859;SDS011;46694;54.382;9.708;2023-03-01T07:04:06;7.72;;;6.75;;
60859;SDS011;46694;54.382;9.708;2023-03-01T07:06:46;13.90;;;6.63;;
60859;SDS011;46694;54.382;9.708;2023-03-01T07:09:32;7.95;;;6.45;;
60859;SDS011;46694;54.382;9.708;2023-03-01T07:12:12;7.70;;;6.50;;
60859;SDS011;46694;54.382;9.708;2023-03-01T07:14:51;9.18;;;6.28;;
60859;SDS011;46694;54.382;9.708;2023-03-01T07:17:31;22.67;;;6.65;;
60859;SDS011;46694;54.382;9.708;2023-03-01T07:20:10;7.53;;;6.55;;
60859;SDS011;46694;54.382;9.708;2023-03-01T07:22:51;7.10;;;6.40;;
60859;SDS011;46694;54.382;9.708;2023-03-01T07:25:32;6.20;;;5.70;;
60859;SDS011;46694;54.382;9.708;2023-03-01T07:28:12;8.30;;;6.90;;
60859;SDS011;46694;54.382;9.708;2023-03-01T07:30:51;44.35;;;9.93;;
60859;SDS011;46694;54.382;9.708;2023-03-01T07:33:31;16.83;;;8.30;;
60859;SDS011;46694;54.382;9.708;2023-03-01T07:36:11;34.83;;;8.77;;
60859;SDS011;46694;54.382;9.708;2023-03-01T07:38:50;32.90;;;9.18;;
60859;SDS011;46694;54.382;9.708;2023-03-01T07:41:30;12.55;;;7.88;;
60859;SDS011;46694;54.382;9.708;2023-03-01T07:44:10;28.70;;;7.65;;
60859;SDS011;46694;54.382;9.708;2023-03-01T07:46:49;16.77;;;8.07;;
60859;SDS011;46694;54.382;9.708;2023-03-01T07:49:30;10.45;;;8.25;;
60859;SDS011;46694;54.382;9.708;2023-03-01T07:52:10;16.75;;;8.55;;
60859;SDS011;46694;54.382;9.708;2023-03-01T07:54:50;38.72;;;9.85;;
60859;SDS011;46694;54.382;9.708;2023-03-01T07:57:30;43.67;;;11.02;;
60859;SDS011;46694;54.382;9.708;2023-03-01T08:00:10;12.77;;;8.70;;
60859;SDS011;46694;54.382;9.708;2023-03-01T08:02:50;13.68;;;9.50;;
60859;SDS011;46694;54.382;9.708;2023-03-01T08:05:30;26.05;;;8.95;;
60859;SDS011;46694;54.382;9.708;2023-03-01T08:08:11;34.92;;;11.18;;
60859;SDS011;46694;54.382;9.708;2023-03-01T08:10:50;17.98;;;10.80;;
60859;SDS011;46694;54.382;9.708;2023-03-01T08:13:30;46.67;;;8.15;;
60859;SDS011;46694;54.382;9.708;2023-03-01T08:16:11;30.35;;;8.30;;
60859;SDS011;46694;54.382;9.708;2023-03-01T08:18:53;10.25;;;7.93;;
60859;SDS011;46694;54.382;9.708;2023-03-01T08:21:35;8.82;;;7.85;;
60859;SDS011;46694;54.382;9.708;2023-03-01T08:24:15;16.27;;;8.10;;
60859;SDS011;46694;54.382;9.708;2023-03-01T08:26:55;8.70;;;7.45;;
60859;SDS011;46694;54.382;9.708;2023-03-01T08:29:34;12.77;;;7.60;;
60859;SDS011;46694;54.382;9.708;2023-03-01T08:32:14;12.30;;;8.25;;
60859;SDS011;46694;54.382;9.708;2023-03-01T08:34:53;29.17;;;7.80;;
60859;SDS011;46694;54.382;9.708;2023-03-01T08:37:33;14.02;;;7.00;;
60859;SDS011;46694;54.382;9.708;2023-03-01T08:40:13;8.85;;;7.40;;
60859;SDS011;46694;54.382;9.708;2023-03-01T08:42:53;9.85;;;6.95;;
60859;SDS011;46694;54.382;9.708;2023-03-01T08:45:32;12.05;;;6.90;;
60859;SDS011;46694;54.382;9.708;2023-03-01T08:48:12;6.82;;;6.07;;
60859;SDS011;46694;54.382;9.708;2023-03-01T08:50:51;19.83;;;7.22;;
60859;SDS011;46694;54.382;9.708;2023-03-01T08:53:31;11.23;;;6.07;;
60859;SDS011;46694;54.382;9.708;2023-03-01T08:56:11;11.07;;;6.47;;
60859;SDS011;46694;54.382;9.708;2023-03-01T08:58:51;6.07;;;5.55;;
60859;SDS011;46694;54.382;9.708;2023-03-01T09:01:30;7.13;;;5.97;;
60859;SDS011;46694;54.382;9.708;2023-03-01T09:04:10;7.75;;;6.03;;
60859;SDS011;46694;54.382;9.708;2023-03-01T09:06:51;6.35;;;5.80;;
60859;SDS011;46694;54.382;9.708;2023-03-01T09:09:30;6.70;;;5.75;;
60859;SDS011;46694;54.382;9.708;2023-03-01T09:12:10;9.60;;;6.45;;
60859;SDS011;46694;54.382;9.708;2023-03-01T09:14:49;7.40;;;6.70;;
60859;SDS011;46694;54.382;9.708;2023-03-01T09:17:29;7.90;;;6.20;;
60859;SDS011;46694;54.382;9.708;2023-03-01T09:20:09;9.88;;;7.20;;
60859;SDS011;46694;54.382;9.708;2023-03-01T09:22:49;7.00;;;6.38;;
60859;SDS011;46694;54.382;9.708;2023-03-01T09:25:28;13.43;;;7.55;;
60859;SDS011;46694;54.382;9.708;2023-03-01T09:28:08;8.52;;;7.07;;
60859;SDS011;46694;54.382;9.708;2023-03-01T09:30:49;46.35;;;9.00;;
60859;SDS011;46694;54.382;9.708;2023-03-01T09:33:29;7.15;;;6.45;;
60859;SDS011;46694;54.382;9.708;2023-03-01T09:36:12;8.40;;;6.80;;
60859;SDS011;46694;54.382;9.708;2023-03-01T09:38:55;7.40;;;6.70;;
60859;SDS011;46694;54.382;9.708;2023-03-01T09:44:55;7.00;;;6.00;;
60859;SDS011;46694;54.382;9.708;2023-03-01T09:47:41;7.13;;;6.35;;
60859;SDS011;46694;54.382;9.708;2023-03-01T09:50:21;6.75;;;6.15;;
60859;SDS011;46694;54.382;9.708;2023-03-01T09:53:03;7.43;;;6.68;;
60859;SDS011;46694;54.382;9.708;2023-03-01T09:55:55;6.05;;;5.50;;
60859;SDS011;46694;54.382;9.708;2023-03-01T09:58:52;6.35;;;5.13;;
60859;SDS011;46694;54.382;9.708;2023-03-01T10:01:52;7.50;;;6.80;;
60859;SDS011;46694;54.382;9.708;2023-03-01T10:05:09;7.30;;;5.82;;
60859;SDS011;46694;54.382;9.708;2023-03-01T10:11:47;7.28;;;5.25;;
60859;SDS011;46694;54.382;9.708;2023-03-01T10:14:34;6.03;;;5.22;;
60859;SDS011;46694;54.382;9.708;2023-03-01T10:17:46;6.25;;;5.68;;
60859;SDS011;46694;54.382;9.708;2023-03-01T10:23:34;4.97;;;4.45;;
60859;SDS011;46694;54.382;9.708;2023-03-01T10:31:49;4.50;;;4.10;;
60859;SDS011;46694;54.382;9.708;2023-03-01T10:34:31;5.32;;;4.82;;
60859;SDS011;46694;54.382;9.708;2023-03-01T10:37:15;9.10;;;5.07;;
60859;SDS011;46694;54.382;9.708;2023-03-01T10:42:46;5.32;;;4.82;;
60859;SDS011;46694;54.382;9.708;2023-03-01T10:45:38;5.25;;;4.75;;
60859;SDS011;46694;54.382;9.708;2023-03-01T10:51:06;5.80;;;5.20;;
60859;SDS011;46694;54.382;9.708;2023-03-01T10:53:50;6.15;;;5.60;;
60859;SDS011;46694;54.382;9.708;2023-03-01T10:56:30;5.68;;;5.10;;
60859;SDS011;46694;54.382;9.708;2023-03-01T10:59:34;5.55;;;5.05;;
60859;SDS011;46694;54.382;9.708;2023-03-01T11:02:23;6.63;;;5.97;;
60859;SDS011;46694;54.382;9.708;2023-03-01T11:07:56;6.32;;;5.75;;
60859;SDS011;46694;54.382;9.708;2023-03-01T11:10:37;7.50;;;6.10;;
60859;SDS011;46694;54.382;9.708;2023-03-01T11:13:17;6.30;;;5.70;;
60859;SDS011;46694;54.382;9.708;2023-03-01T11:16:02;7.00;;;5.75;;
60859;SDS011;46694;54.382;9.708;2023-03-01T11:18:46;6.32;;;5.75;;
60859;SDS011;46694;54.382;9.708;2023-03-01T11:24:58;7.05;;;6.35;;
60859;SDS011;46694;54.382;9.708;2023-03-01T11:27:40;6.07;;;5.57;;
60859;SDS011;46694;54.382;9.708;2023-03-01T11:30:28;6.32;;;5.80;;
60859;SDS011;46694;54.382;9.708;2023-03-01T11:37:03;6.03;;;5.43;;
60859;SDS011;46694;54.382;9.708;2023-03-01T11:43:02;9.40;;;6.63;;
60859;SDS011;46694;54.382;9.708;2023-03-01T12:02:07;6.47;;;5.88;;
60859;SDS011;46694;54.382;9.708;2023-03-01T12:08:41;5.45;;;4.93;;
60859;SDS011;46694;54.382;9.708;2023-03-01T12:21:30;7.10;;;5.35;;
60859;SDS011;46694;54.382;9.708;2023-03-01T12:39:28;6.00;;;5.50;;
60859;SDS011;46694;54.382;9.708;2023-03-01T12:48:31;6.50;;;5.90;;
60859;SDS011;46694;54.382;9.708;2023-03-01T12:51:26;9.15;;;6.55;;
60859;SDS011;46694;54.382;9.708;2023-03-01T12:54:14;8.68;;;6.72;;
60859;SDS011;46694;54.382;9.708;2023-03-01T12:57:01;7.75;;;7.03;;
60859;SDS011;46694;54.382;9.708;2023-03-01T13:00:02;8.30;;;6.35;;
60859;SDS011;46694;54.382;9.708;2023-03-01T13:03:10;7.90;;;7.10;;
60859;SDS011;46694;54.382;9.708;2023-03-01T13:06:17;7.63;;;6.93;;
60859;SDS011;46694;54.382;9.708;2023-03-01T13:15:31;8.38;;;7.05;;
60859;SDS011;46694;54.382;9.708;2023-03-01T13:20:55;11.73;;;7.28;;
60859;SDS011;46694;54.382;9.708;2023-03-01T13:23:38;9.05;;;7.93;;
60859;SDS011;46694;54.382;9.708;2023-03-01T13:26:18;7.40;;;6.70;;
60859;SDS011;46694;54.382;9.708;2023-03-01T13:28:58;9.77;;;7.15;;
60859;SDS011;46694;54.382;9.708;2023-03-01T13:37:27;12.10;;;8.68;;
60859;SDS011;46694;54.382;9.708;2023-03-01T13:42:55;10.50;;;7.60;;
60859;SDS011;46694;54.382;9.708;2023-03-01T13:45:39;10.80;;;8.23;;
60859;SDS011;46694;54.382;9.708;2023-03-01T13:48:25;13.23;;;8.23;;
60859;SDS011;46694;54.382;9.708;2023-03-01T13:51:09;9.55;;;7.95;;
60859;SDS011;46694;54.382;9.708;2023-03-01T13:53:50;10.30;;;8.55;;
60859;SDS011;46694;54.382;9.708;2023-03-01T13:56:38;11.63;;;9.05;;
60859;SDS011;46694;54.382;9.708;2023-03-01T13:59:20;11.65;;;8.35;;
60859;SDS011;46694;54.382;9.708;2023-03-01T14:02:01;11.88;;;9.88;;
60859;SDS011;46694;54.382;9.708;2023-03-01T14:04:40;13.32;;;9.18;;
60859;SDS011;46694;54.382;9.708;2023-03-01T14:07:21;12.15;;;8.43;;
60859;SDS011;46694;54.382;9.708;2023-03-01T14:10:11;13.63;;;10.00;;
60859;SDS011;46694;54.382;9.708;2023-03-01T14:12:55;14.80;;;10.02;;
60859;SDS011;46694;54.382;9.708;2023-03-01T14:16:12;17.50;;;11.00;;
60859;SDS011;46694;54.382;9.708;2023-03-01T14:19:15;16.55;;;10.32;;
60859;SDS011;46694;54.382;9.708;2023-03-01T14:22:13;21.08;;;12.57;;
60859;SDS011;46694;54.382;9.708;2023-03-01T14:28:32;23.60;;;13.50;;
60859;SDS011;46694;54.382;9.708;2023-03-01T14:34:19;25.88;;;13.93;;
60859;SDS011;46694;54.382;9.708;2023-03-01T14:37:10;24.38;;;14.52;;
60859;SDS011;46694;54.382;9.708;2023-03-01T14:39:59;20.70;;;13.63;;
60859;SDS011;46694;54.382;9.708;2023-03-01T14:42:42;24.92;;;13.00;;
60859;SDS011;46694;54.382;9.708;2023-03-01T14:45:26;26.75;;;14.23;;
60859;SDS011;46694;54.382;9.708;2023-03-01T14:48:08;23.73;;;12.93;;
60859;SDS011;46694;54.382;9.708;2023-03-01T14:50:47;24.30;;;13.40;;
60859;SDS011;46694;54.382;9.708;2023-03-01T14:53:29;27.13;;;13.20;;
60859;SDS011;46694;54.382;9.708;2023-03-01T14:56:13;18.30;;;11.40;;
60859;SDS011;46694;54.382;9.708;2023-03-01T14:58:57;20.83;;;12.95;;
60859;SDS011;46694;54.382;9.708;2023-03-01T15:01:38;20.95;;;12.35;;
60859;SDS011;46694;54.382;9.708;2023-03-01T15:04:20;21.40;;;12.90;;
60859;SDS011;46694;54.382;9.708;2023-03-01T15:07:01;18.73;;;12.75;;
60859;SDS011;46694;54.382;9.708;2023-03-01T15:09:43;19.88;;;12.05;;
60859;SDS011;46694;54.382;9.708;2023-03-01T15:18:25;14.45;;;10.35;;
60859;SDS011;46694;54.382;9.708;2023-03-01T15:21:42;18.05;;;10.15;;
60859;SDS011;46694;54.382;9.708;2023-03-01T15:24:20;15.20;;;10.25;;
60859;SDS011;46694;54.382;9.708;2023-03-01T15:27:03;16.83;;;10.90;;
60859;SDS011;46694;54.382;9.708;2023-03-01T15:29:52;14.80;;;10.52;;
60859;SDS011;46694;54.382;9.708;2023-03-01T15:32:35;15.50;;;10.10;;
60859;SDS011;46694;54.382;9.708;2023-03-01T15:38:27;20.70;;;12.90;;
60859;SDS011;46694;54.382;9.708;2023-03-01T15:44:23;21.90;;;12.35;;
60859;SDS011;46694;54.382;9.708;2023-03-01T15:47:23;19.05;;;13.52;;
60859;SDS011;46694;54.382;9.708;2023-03-01T15:50:16;17.20;;;13.20;;
60859;SDS011;46694;54.382;9.708;2023-03-01T15:53:00;22.00;;;13.80;;
60859;SDS011;46694;54.382;9.708;2023-03-01T15:55:45;20.75;;;14.68;;
60859;SDS011;46694;54.382;9.708;2023-03-01T15:58:28;27.63;;;17.42;;
60859;SDS011;46694;54.382;9.708;2023-03-01T16:01:14;22.17;;;15.32;;
60859;SDS011;46694;54.382;9.708;2023-03-01T16:03:55;22.10;;;13.88;;
60859;SDS011;46694;54.382;9.708;2023-03-01T16:06:37;21.55;;;13.65;;
60859;SDS011;46694;54.382;9.708;2023-03-01T16:09:18;26.38;;;16.15;;
60859;SDS011;46694;54.382;9.708;2023-03-01T16:11:57;22.15;;;15.32;;
60859;SDS011;46694;54.382;9.708;2023-03-01T16:14:55;28.05;;;17.70;;
60859;SDS011;46694;54.382;9.708;2023-03-01T16:17:36;27.48;;;17.08;;
60859;SDS011;46694;54.382;9.708;2023-03-01T16:20:16;31.13;;;16.65;;
60859;SDS011;46694;54.382;9.708;2023-03-01T16:23:00;27.38;;;17.42;;
60859;SDS011;46694;54.382;9.708;2023-03-01T16:25:41;23.50;;;16.67;;
60859;SDS011;46694;54.382;9.708;2023-03-01T16:28:21;27.33;;;16.73;;
60859;SDS011;46694;54.382;9.708;2023-03-01T16:31:00;23.92;;;17.70;;
60859;SDS011;46694;54.382;9.708;2023-03-01T16:33:40;28.05;;;18.05;;
60859;SDS011;46694;54.382;9.708;2023-03-01T16:36:20;44.13;;;18.05;;
60859;SDS011;46694;54.382;9.708;2023-03-01T16:39:02;32.53;;;17.42;;
60859;SDS011;46694;54.382;9.708;2023-03-01T16:41:42;24.88;;;17.25;;
60859;SDS011;46694;54.382;9.708;2023-03-01T16:44:22;31.23;;;18.77;;
60859;SDS011;46694;54.382;9.708;2023-03-01T16:47:01;26.90;;;19.15;;
60859;SDS011;46694;54.382;9.708;2023-03-01T16:49:41;29.95;;;19.75;;
60859;SDS011;46694;54.382;9.708;2023-03-01T16:52:21;27.83;;;18.88;;
60859;SDS011;46694;54.382;9.708;2023-03-01T16:55:04;28.38;;;19.20;;
60859;SDS011;46694;54.382;9.708;2023-03-01T16:57:45;29.63;;;19.00;;
60859;SDS011;46694;54.382;9.708;2023-03-01T17:00:25;33.10;;;19.70;;
60859;SDS011;46694;54.382;9.708;2023-03-01T17:03:05;40.30;;;20.10;;
60859;SDS011;46694;54.382;9.708;2023-03-01T17:05:44;36.22;;;22.15;;
60859;SDS011;46694;54.382;9.708;2023-03-01T17:08:24;36.65;;;22.27;;
60859;SDS011;46694;54.382;9.708;2023-03-01T17:11:09;36.67;;;21.50;;
60859;SDS011;46694;54.382;9.708;2023-03-01T17:13:56;35.30;;;22.80;;
60859;SDS011;46694;54.382;9.708;2023-03-01T17:16:36;33.20;;;21.25;;
60859;SDS011;46694;54.382;9.708;2023-03-01T17:19:15;43.30;;;25.85;;
60859;SDS011;46694;54.382;9.708;2023-03-01T17:21:56;36.42;;;23.80;;
60859;SDS011;46694;54.382;9.708;2023-03-01T17:24:37;38.80;;;22.67;;
60859;SDS011;46694;54.382;9.708;2023-03-01T17:27:18;41.63;;;22.45;;
60859;SDS011;46694;54.382;9.708;2023-03-01T17:29:57;32.70;;;21.50;;
60859;SDS011;46694;54.382;9.708;2023-03-01T17:32:37;37.22;;;23.00;;
60859;SDS011;46694;54.382;9.708;2023-03-01T17:35:17;35.30;;;21.73;;
60859;SDS011;46694;54.382;9.708;2023-03-01T17:37:57;35.50;;;21.67;;
60859;SDS011;46694;54.382;9.708;2023-03-01T17:40:36;40.50;;;22.65;;
60859;SDS011;46694;54.382;9.708;2023-03-01T17:43:17;45.25;;;24.83;;
60859;SDS011;46694;54.382;9.708;2023-03-01T17:45:58;37.47;;;22.95;;
60859;SDS011;46694;54.382;9.708;2023-03-01T17:48:37;47.20;;;24.25;;
60859;SDS011;46694;54.382;9.708;2023-03-01T17:51:17;40.33;;;24.10;;
60859;SDS011;46694;54.382;9.708;2023-03-01T17:53:57;37.60;;;23.35;;
60859;SDS011;46694;54.382;9.708;2023-03-01T17:56:37;37.05;;;22.88;;
60859;SDS011;46694;54.382;9.708;2023-03-01T17:59:16;44.22;;;23.95;;
60859;SDS011;46694;54.382;9.708;2023-03-01T18:01:56;53.45;;;25.45;;
60859;SDS011;46694;54.382;9.708;2023-03-01T18:04:38;38.20;;;22.80;;
60859;SDS011;46694;54.382;9.708;2023-03-01T18:07:18;47.25;;;23.38;;
60859;SDS011;46694;54.382;9.708;2023-03-01T18:09:57;45.03;;;24.95;;
60859;SDS011;46694;54.382;9.708;2023-03-01T18:12:37;50.35;;;25.63;;